nws-alerts: Checking more than four warning/county codes can delay the loading of your pages. You should use a cron job to get the data.
EllijayWeather Station Historical Data
Daily Summary for October 6, 2018 Units:  English    Metric   Both
Daily Weekly Monthly Yearly Custom
  High: Low: Average:
Temperature: 83.1 °F 63.7 °F 72.1 °F
Dew Point: 73.2 °F 53.2 °F 62.3 °F
Humidity: 81% 63% 71%
Wind Speed: 2.9mph 0mph 0mph
Wind Gust: 3mph - -
Wind- - WSW
Pressure: 30.17 in 30.09 in -
Precipitation: 0 in    
Historical Graphs
 
 
Tabular Data for October 6, 2018
Time Temperature Dew Point Pressure Wind Wind Speed Wind Gust Humidity Rainfall Rate (Hourly) solar
00:04 68.7 °F 59.4 °F 30.11 in Calm     72% 0 in meteobridge W/m2
00:09 68.7 °F 59.4 °F 30.11 in Calm     72% 0 in meteobridge W/m2
00:14 68.5 °F 59.2 °F 30.11 in Calm     72% 0 in meteobridge W/m2
00:19 68.5 °F 59.2 °F 30.11 in Calm     72% 0 in meteobridge W/m2
00:24 68.4 °F 59 °F 30.11 in Calm     72% 0 in meteobridge W/m2
00:29 68.4 °F 59 °F 30.11 in Calm     72% 0 in meteobridge W/m2
00:34 68.2 °F 58.5 °F 30.11 in Calm     71% 0 in meteobridge W/m2
00:39 68.2 °F 58.5 °F 30.11 in Calm     71% 0 in meteobridge W/m2
00:44 68.2 °F 58.5 °F 30.10 in Calm     71% 0 in meteobridge W/m2
00:49 68 °F 58.3 °F 30.10 in Calm     71% 0 in meteobridge W/m2
00:54 67.8 °F 58.5 °F 30.10 in Calm     72% 0 in meteobridge W/m2
00:59 67.8 °F 58.5 °F 30.10 in Calm     72% 0 in meteobridge W/m2
01:04 67.6 °F 57.9 °F 30.10 in Calm     71% 0 in meteobridge W/m2
01:09 67.6 °F 57.9 °F 30.11 in Calm     71% 0 in meteobridge W/m2
01:14 67.6 °F 57.9 °F 30.11 in Calm     71% 0 in meteobridge W/m2
01:19 67.6 °F 57.9 °F 30.11 in Calm     71% 0 in meteobridge W/m2
01:24 67.5 °F 57.7 °F 30.11 in Calm     71% 0 in meteobridge W/m2
01:29 67.5 °F 57.7 °F 30.10 in Calm     71% 0 in meteobridge W/m2
01:34 67.5 °F 57.7 °F 30.10 in Calm     71% 0 in meteobridge W/m2
01:39 67.3 °F 57.6 °F 30.10 in Calm     71% 0 in meteobridge W/m2
01:44 67.3 °F 57.6 °F 30.10 in Calm     71% 0 in meteobridge W/m2
01:49 67.1 °F 57.4 °F 30.10 in Calm     71% 0 in meteobridge W/m2
01:54 67.1 °F 57.4 °F 30.10 in Calm     71% 0 in meteobridge W/m2
01:59 66.9 °F 57.2 °F 30.10 in Calm     71% 0 in meteobridge W/m2
02:04 66.7 °F 57 °F 30.10 in Calm     71% 0 in meteobridge W/m2
02:09 66.7 °F 57 °F 30.10 in Calm     71% 0 in meteobridge W/m2
02:14 66.7 °F 57 °F 30.09 in Calm     71% 0 in meteobridge W/m2
02:19 66.6 °F 56.8 °F 30.10 in Calm     71% 0 in meteobridge W/m2
02:24 66.6 °F 56.8 °F 30.10 in Calm     71% 0 in meteobridge W/m2
02:29 66.6 °F 56.8 °F 30.10 in Calm     71% 0 in meteobridge W/m2
02:34 66.4 °F 56.7 °F 30.10 in Calm     71% 0 in meteobridge W/m2
02:39 66.6 °F 56.8 °F 30.10 in Calm     71% 0 in meteobridge W/m2
02:44 66.4 °F 56.3 °F 30.09 in Calm     70% 0 in meteobridge W/m2
02:49 66.4 °F 56.3 °F 30.09 in Calm     70% 0 in meteobridge W/m2
02:54 66.4 °F 56.3 °F 30.09 in Calm     70% 0 in meteobridge W/m2
02:59 66.4 °F 56.3 °F 30.09 in Calm     70% 0 in meteobridge W/m2
03:04 66.4 °F 56.3 °F 30.09 in Calm     70% 0 in meteobridge W/m2
03:09 66.4 °F 56.3 °F 30.09 in Calm     70% 0 in meteobridge W/m2
03:14 66.2 °F 56.1 °F 30.09 in Calm     70% 0 in meteobridge W/m2
03:19 66.2 °F 56.1 °F 30.09 in Calm     70% 0 in meteobridge W/m2
03:24 66 °F 55.9 °F 30.09 in Calm     70% 0 in meteobridge W/m2
03:29 66 °F 55.9 °F 30.09 in Calm     70% 0 in meteobridge W/m2
03:34 66 °F 55.9 °F 30.09 in Calm     70% 0 in meteobridge W/m2
03:39 65.8 °F 55.8 °F 30.09 in Calm     70% 0 in meteobridge W/m2
03:44 65.8 °F 55.8 °F 30.09 in Calm     70% 0 in meteobridge W/m2
03:49 65.8 °F 55.8 °F 30.09 in Calm     70% 0 in meteobridge W/m2
03:54 65.8 °F 55.8 °F 30.09 in Calm     70% 0 in meteobridge W/m2
03:59 65.8 °F 55.8 °F 30.09 in Calm     70% 0 in meteobridge W/m2
04:04 65.7 °F 55.6 °F 30.09 in Calm     70% 0 in meteobridge W/m2
04:09 65.7 °F 55.6 °F 30.09 in Calm     70% 0 in meteobridge W/m2
04:14 65.8 °F 55.8 °F 30.09 in Calm     70% 0 in meteobridge W/m2
04:19 65.8 °F 55.8 °F 30.09 in Calm     70% 0 in meteobridge W/m2
04:24 65.7 °F 55.6 °F 30.09 in Calm     70% 0 in meteobridge W/m2
04:29 65.7 °F 55.2 °F 30.09 in Calm     69% 0 in meteobridge W/m2
04:34 65.7 °F 55.2 °F 30.10 in Calm     69% 0 in meteobridge W/m2
04:39 65.7 °F 55.6 °F 30.10 in Calm     70% 0 in meteobridge W/m2
04:44 65.7 °F 55.6 °F 30.10 in Calm     70% 0 in meteobridge W/m2
04:49 65.7 °F 55.2 °F 30.10 in Calm     69% 0 in meteobridge W/m2
04:54 65.5 °F 55 °F 30.10 in Calm     69% 0 in meteobridge W/m2
04:59 65.5 °F 55 °F 30.10 in Calm     69% 0 in meteobridge W/m2
05:03 65.5 °F 55 °F 30.10 in Calm     69% 0 in meteobridge W/m2
05:09 65.5 °F 55 °F 30.10 in Calm     69% 0 in meteobridge W/m2
05:14 65.5 °F 55 °F 30.10 in Calm     69% 0 in meteobridge W/m2
05:19 65.3 °F 54.9 °F 30.10 in Calm     69% 0 in meteobridge W/m2
05:24 65.3 °F 54.9 °F 30.11 in Calm     69% 0 in meteobridge W/m2
05:29 65.1 °F 54.7 °F 30.11 in Calm     69% 0 in meteobridge W/m2
05:34 65.1 °F 54.7 °F 30.11 in Calm     69% 0 in meteobridge W/m2
05:39 65.1 °F 54.7 °F 30.11 in Calm     69% 0 in meteobridge W/m2
05:44 65.1 °F 54.7 °F 30.11 in Calm     69% 0 in meteobridge W/m2
05:49 64.9 °F 54.5 °F 30.11 in Calm     69% 0 in meteobridge W/m2
05:54 64.9 °F 54.5 °F 30.11 in Calm     69% 0 in meteobridge W/m2
05:59 64.9 °F 54.5 °F 30.11 in Calm     69% 0 in meteobridge W/m2
06:04 64.9 °F 54.5 °F 30.11 in Calm     69% 0 in meteobridge W/m2
06:09 64.9 °F 54.5 °F 30.12 in Calm     69% 0 in meteobridge W/m2
06:14 64.8 °F 54.3 °F 30.12 in Calm     69% 0 in meteobridge W/m2
06:19 64.8 °F 54.3 °F 30.12 in Calm     69% 0 in meteobridge W/m2
06:24 64.8 °F 54.3 °F 30.12 in Calm     69% 0 in meteobridge W/m2
06:29 64.8 °F 54.3 °F 30.12 in Calm     69% 0 in meteobridge W/m2
06:34 64.8 °F 54.3 °F 30.12 in Calm     69% 0 in meteobridge W/m2
06:39 64.6 °F 54.1 °F 30.13 in Calm     69% 0 in meteobridge W/m2
06:44 64.4 °F 54.3 °F 30.12 in Calm     70% 0 in meteobridge W/m2
06:49 64.2 °F 54.3 °F 30.13 in Calm     70% 0 in meteobridge W/m2
06:54 64.2 °F 54.3 °F 30.13 in Calm     70% 0 in meteobridge W/m2
06:59 64.2 °F 53.8 °F 30.13 in Calm     69% 0 in meteobridge W/m2
07:04 64.2 °F 53.8 °F 30.13 in Calm     69% 0 in meteobridge W/m2
07:09 64 °F 53.6 °F 30.13 in Calm     69% 0 in meteobridge W/m2
07:14 64 °F 53.6 °F 30.13 in Calm     69% 0 in meteobridge W/m2
07:19 64 °F 53.6 °F 30.14 in Calm     69% 0 in meteobridge W/m2
07:24 64 °F 53.6 °F 30.14 in Calm     69% 0 in meteobridge W/m2
07:29 63.9 °F 53.4 °F 30.14 in Calm     69% 0 in meteobridge W/m2
07:34 63.9 °F 53.4 °F 30.14 in Calm     69% 0 in meteobridge W/m2
07:39 63.9 °F 53.4 °F 30.14 in Calm     69% 0 in meteobridge W/m2
07:44 63.7 °F 53.2 °F 30.15 in Calm     69% 0 in meteobridge W/m2
07:49 63.7 °F 53.2 °F 30.15 in Calm     69% 0 in meteobridge W/m2
07:54 63.7 °F 53.2 °F 30.15 in Calm     69% 0 in meteobridge W/m2
07:59 63.7 °F 53.2 °F 30.15 in Calm     69% 0 in meteobridge W/m2
08:04 63.7 °F 53.2 °F 30.14 in Calm     69% 0 in meteobridge W/m2
08:09 63.7 °F 53.2 °F 30.15 in Calm     69% 0 in meteobridge W/m2
08:14 63.7 °F 53.2 °F 30.15 in Calm     69% 0 in meteobridge W/m2
08:19 63.7 °F 53.2 °F 30.15 in Calm     69% 0 in meteobridge W/m2
08:24 63.9 °F 53.4 °F 30.15 in Calm     69% 0 in meteobridge W/m2
08:29 63.9 °F 53.4 °F 30.16 in Calm     69% 0 in meteobridge W/m2
08:34 64 °F 53.2 °F 30.16 in Calm     68% 0 in meteobridge W/m2
08:39 64 °F 53.2 °F 30.16 in Calm     68% 0 in meteobridge W/m2
08:44 64 °F 53.6 °F 30.16 in Calm     69% 0 in meteobridge W/m2
08:49 64.2 °F 53.4 °F 30.16 in Calm     68% 0 in meteobridge W/m2
08:54 64.4 °F 53.6 °F 30.16 in Calm     68% 0 in meteobridge W/m2
08:59 64.8 °F 54 °F 30.16 in Calm     68% 0 in meteobridge W/m2
09:04 64.9 °F 54.1 °F 30.16 in Calm     68% 0 in meteobridge W/m2
09:09 65.3 °F 54.5 °F 30.16 in Calm     68% 0 in meteobridge W/m2
09:14 65.5 °F 54.3 °F 30.16 in Calm     67% 0 in meteobridge W/m2
09:19 65.8 °F 54.5 °F 30.16 in Calm     67% 0 in meteobridge W/m2
09:24 66.4 °F 55 °F 30.16 in Calm     67% 0 in meteobridge W/m2
09:29 66.6 °F 55.2 °F 30.16 in Calm     67% 0 in meteobridge W/m2
09:34 67.1 °F 55.8 °F 30.17 in Calm     67% 0 in meteobridge W/m2
09:39 67.6 °F 55.9 °F 30.17 in Calm     66% 0 in meteobridge W/m2
09:44 68 °F 56.3 °F 30.16 in Calm     66% 0 in meteobridge W/m2
09:49 68.4 °F 56.5 °F 30.16 in Calm     66% 0 in meteobridge W/m2
09:54 68.7 °F 56.8 °F 30.16 in Calm     66% 0 in meteobridge W/m2
09:59 69.1 °F 57.2 °F 30.16 in Calm     66% 0 in meteobridge W/m2
10:04 69.4 °F 57.2 °F 30.16 in Calm     65% 0 in meteobridge W/m2
10:09 70 °F 57.7 °F 30.17 in Calm     65% 0 in meteobridge W/m2
10:14 70.5 °F 58.1 °F 30.16 in Calm     65% 0 in meteobridge W/m2
10:19 71.1 °F 58.6 °F 30.16 in Calm     65% 0 in meteobridge W/m2
10:24 71.6 °F 58.8 °F 30.16 in Calm     64% 0 in meteobridge W/m2
10:29 72 °F 59.2 °F 30.16 in Calm     64% 0 in meteobridge W/m2
10:34 72.1 °F 59.4 °F 30.16 in Calm   1 mph 64% 0 in meteobridge W/m2
10:39 72.7 °F 60.3 °F 30.16 in Calm     65% 0 in meteobridge W/m2
10:44 73 °F 61.5 °F 30.16 in Calm     67% 0 in meteobridge W/m2
10:49 73.6 °F 62.8 °F 30.16 in Calm     69% 0 in meteobridge W/m2
10:54 74.1 °F 63.7 °F 30.16 in Calm     70% 0 in meteobridge W/m2
10:59 74.7 °F 65.8 °F 30.16 in Calm     74% 0 in meteobridge W/m2
11:04 75.4 °F 67.6 °F 30.16 in Calm     77% 0 in meteobridge W/m2
11:09 75.9 °F 68.5 °F 30.16 in Calm     78% 0 in meteobridge W/m2
11:14 76.3 °F 70 °F 30.16 in Calm     81% 0 in meteobridge W/m2
11:19 76.8 °F 70.2 °F 30.16 in Calm     80% 0 in meteobridge W/m2
11:24 76.8 °F 70.5 °F 30.16 in Calm   3 mph 81% 0 in meteobridge W/m2
11:29 77.4 °F 70.7 °F 30.16 in Calm     80% 0 in meteobridge W/m2
11:34 77.9 °F 70.9 °F 30.16 in Calm   1 mph 79% 0 in meteobridge W/m2
11:39 78.4 °F 71.4 °F 30.16 in Calm     79% 0 in meteobridge W/m2
11:44 78.8 °F 71.1 °F 30.16 in Calm     77% 0 in meteobridge W/m2
11:49 79.5 °F 71.6 °F 30.16 in Calm     77% 0 in meteobridge W/m2
11:54 79.9 °F 71.2 °F 30.16 in Calm   1 mph 75% 0 in meteobridge W/m2
11:59 80.2 °F 71.2 °F 30.16 in Calm   1 mph 74% 0 in meteobridge W/m2
12:04 80.8 °F 70.9 °F 30.16 in Calm   3 mph 72% 0 in meteobridge W/m2
12:09 81.1 °F 70.9 °F 30.16 in Calm   2 mph 71% 0 in meteobridge W/m2
12:14 81.5 °F 72 °F 30.16 in NNE 0.9 mph 1 mph 73% 0 in meteobridge W/m2
12:19 81.7 °F 70.9 °F 30.16 in Calm     70% 0 in meteobridge W/m2
12:24 81.9 °F 71.6 °F 30.15 in NW 0.9 mph 3 mph 71% 0 in meteobridge W/m2
12:29 82.2 °F 71.1 °F 30.15 in Calm   2 mph 69% 0 in meteobridge W/m2
12:34 82.2 °F 71.1 °F 30.15 in Calm   1 mph 69% 0 in meteobridge W/m2
12:39 82 °F 71.2 °F 30.16 in WNW 2.9 mph 3 mph 70% 0 in meteobridge W/m2
12:44 81.9 °F 71.6 °F 30.16 in Calm     71% 0 in meteobridge W/m2
12:49 81.9 °F 70.7 °F 30.15 in Calm     69% 0 in meteobridge W/m2
12:54 82 °F 72.1 °F 30.15 in Calm     72% 0 in meteobridge W/m2
12:59 82 °F 71.2 °F 30.16 in Calm     70% 0 in meteobridge W/m2
13:04 82 °F 72.9 °F 30.15 in Calm     74% 0 in meteobridge W/m2
13:09 81.9 °F 73.2 °F 30.15 in Calm     75% 0 in meteobridge W/m2
13:14 81.7 °F 73 °F 30.15 in Calm     75% 0 in meteobridge W/m2
13:19 81.1 °F 72.9 °F 30.15 in Calm     76% 0 in meteobridge W/m2
13:24 81 °F 72.7 °F 30.14 in Calm     76% 0 in meteobridge W/m2
13:29 80.8 °F 72.9 °F 30.14 in Calm     77% 0 in meteobridge W/m2
13:34 80.4 °F 72.5 °F 30.14 in Calm     77% 0 in meteobridge W/m2
13:39 80.2 °F 72.7 °F 30.14 in Calm     78% 0 in meteobridge W/m2
13:44 80.2 °F 72.7 °F 30.14 in Calm     78% 0 in meteobridge W/m2
13:49 80.1 °F 72.5 °F 30.14 in Calm     78% 0 in meteobridge W/m2
13:54 80.1 °F 72.5 °F 30.14 in Calm     78% 0 in meteobridge W/m2
13:59 80.1 °F 72.1 °F 30.14 in Calm     77% 0 in meteobridge W/m2
14:04 80.1 °F 72.5 °F 30.13 in Calm     78% 0 in meteobridge W/m2
14:09 80.1 °F 72.5 °F 30.13 in Calm     78% 0 in meteobridge W/m2
14:14 80.1 °F 72.5 °F 30.13 in Calm     78% 0 in meteobridge W/m2
14:19 80.1 °F 73 °F 30.12 in Calm     79% 0 in meteobridge W/m2
14:24 80.1 °F 73 °F 30.13 in Calm     79% 0 in meteobridge W/m2
14:29 79.9 °F 72.9 °F 30.13 in Calm     79% 0 in meteobridge W/m2
14:34 79.5 °F 72.9 °F 30.12 in Calm     80% 0 in meteobridge W/m2
14:39 79.3 °F 72.7 °F 30.12 in Calm     80% 0 in meteobridge W/m2
14:44 79.3 °F 72.7 °F 30.12 in Calm     80% 0 in meteobridge W/m2
14:49 79.5 °F 72.5 °F 30.12 in Calm     79% 0 in meteobridge W/m2
14:54 79.5 °F 72.1 °F 30.12 in Calm     78% 0 in meteobridge W/m2
14:59 79.5 °F 72.9 °F 30.11 in Calm     80% 0 in meteobridge W/m2
15:04 79.5 °F 69.6 °F 30.11 in Calm   1 mph 72% 0 in meteobridge W/m2
15:09 80.4 °F 70.2 °F 30.11 in Calm     71% 0 in meteobridge W/m2
15:14 81.1 °F 69.1 °F 30.11 in Calm     67% 0 in meteobridge W/m2
15:19 81.9 °F 69.8 °F 30.11 in Calm   1 mph 67% 0 in meteobridge W/m2
15:24 82.2 °F 69.3 °F 30.11 in Calm   3 mph 65% 0 in meteobridge W/m2
15:29 82.8 °F 72 °F 30.11 in Calm     70% 0 in meteobridge W/m2
15:34 82.8 °F 72.9 °F 30.11 in Calm     72% 0 in meteobridge W/m2
15:39 82.8 °F 70.2 °F 30.11 in Calm   1 mph 66% 0 in meteobridge W/m2
15:44 82.9 °F 71.8 °F 30.11 in Calm   3 mph 69% 0 in meteobridge W/m2
15:49 82.9 °F 70.9 °F 30.11 in North 0.9 mph 1 mph 67% 0 in meteobridge W/m2
15:54 83.1 °F 69.3 °F 30.11 in Calm     63% 0 in meteobridge W/m2
15:59 82.9 °F 71.8 °F 30.11 in Calm     69% 0 in meteobridge W/m2
16:04 82.6 °F 72.1 °F 30.11 in Calm     71% 0 in meteobridge W/m2
16:09 82.2 °F 72 °F 30.11 in Calm     71% 0 in meteobridge W/m2
16:14 81.9 °F 72.3 °F 30.10 in Calm     73% 0 in meteobridge W/m2
16:19 81.1 °F 72.1 °F 30.10 in Calm     74% 0 in meteobridge W/m2
16:24 80.8 °F 71.8 °F 30.10 in Calm     74% 0 in meteobridge W/m2
16:29 80.2 °F 71.6 °F 30.10 in Calm     75% 0 in meteobridge W/m2
16:34 79.9 °F 71.6 °F 30.11 in Calm     76% 0 in meteobridge W/m2
16:39 79.7 °F 72.1 °F 30.10 in Calm     78% 0 in meteobridge W/m2
16:44 79.5 °F 72.1 °F 30.11 in Calm     78% 0 in meteobridge W/m2
16:49 79.3 °F 72 °F 30.10 in Calm     78% 0 in meteobridge W/m2
16:54 79.3 °F 72.3 °F 30.10 in Calm     79% 0 in meteobridge W/m2
16:59 79 °F 72.3 °F 30.10 in Calm     80% 0 in meteobridge W/m2
17:04 78.8 °F 72.1 °F 30.10 in Calm     80% 0 in meteobridge W/m2
17:09 78.6 °F 72 °F 30.10 in Calm     80% 0 in meteobridge W/m2
17:13 78.4 °F 71.8 °F 30.10 in Calm     80% 0 in meteobridge W/m2
17:19 78.3 °F 71.6 °F 30.10 in Calm     80% 0 in meteobridge W/m2
17:24 78.3 °F 71.6 °F 30.10 in Calm     80% 0 in meteobridge W/m2
17:29 78.3 °F 71.6 °F 30.10 in Calm     80% 0 in meteobridge W/m2
17:33 78.3 °F 71.6 °F 30.10 in Calm     80% 0 in meteobridge W/m2
17:39 78.3 °F 71.2 °F 30.10 in Calm     79% 0 in meteobridge W/m2
17:44 78.1 °F 71.1 °F 30.11 in Calm     79% 0 in meteobridge W/m2
17:49 78.1 °F 71.1 °F 30.11 in Calm     79% 0 in meteobridge W/m2
17:54 78.1 °F 71.1 °F 30.11 in Calm     79% 0 in meteobridge W/m2
17:59 78.1 °F 70.7 °F 30.11 in Calm     78% 0 in meteobridge W/m2
18:04 78.1 °F 70.7 °F 30.11 in Calm     78% 0 in meteobridge W/m2
18:09 78.1 °F 70.7 °F 30.11 in Calm     78% 0 in meteobridge W/m2
18:14 78.1 °F 70.3 °F 30.11 in Calm     77% 0 in meteobridge W/m2
18:19 77.9 °F 70.5 °F 30.11 in Calm     78% 0 in meteobridge W/m2
18:24 77.7 °F 70.3 °F 30.11 in Calm     78% 0 in meteobridge W/m2
18:29 77.5 °F 70.2 °F 30.11 in Calm     78% 0 in meteobridge W/m2
18:33 77.5 °F 69.8 °F 30.11 in Calm     77% 0 in meteobridge W/m2
18:39 77.4 °F 69.6 °F 30.11 in Calm     77% 0 in meteobridge W/m2
18:44 77.4 °F 69.3 °F 30.11 in Calm     76% 0 in meteobridge W/m2
18:49 77.4 °F 69.3 °F 30.11 in Calm     76% 0 in meteobridge W/m2
18:54 77.2 °F 69.1 °F 30.11 in Calm     76% 0 in meteobridge W/m2
18:59 77 °F 68.9 °F 30.11 in Calm     76% 0 in meteobridge W/m2
19:04 76.6 °F 68.5 °F 30.11 in Calm     76% 0 in meteobridge W/m2
19:09 76.5 °F 68.4 °F 30.11 in Calm     76% 0 in meteobridge W/m2
19:14 76.5 °F 68 °F 30.11 in Calm     75% 0 in meteobridge W/m2
19:19 76.1 °F 67.6 °F 30.11 in Calm     75% 0 in meteobridge W/m2
19:24 75.9 °F 67.5 °F 30.11 in Calm     75% 0 in meteobridge W/m2
19:29 75.7 °F 66.9 °F 30.11 in Calm     74% 0 in meteobridge W/m2
19:34 75.6 °F 66.7 °F 30.11 in Calm     74% 0 in meteobridge W/m2
19:39 75.4 °F 66.6 °F 30.11 in Calm     74% 0 in meteobridge W/m2
19:44 75 °F 65.8 °F 30.12 in Calm     73% 0 in meteobridge W/m2
19:49 74.8 °F 65.1 °F 30.12 in Calm     72% 0 in meteobridge W/m2
19:54 74.7 °F 65.1 °F 30.12 in Calm     72% 0 in meteobridge W/m2
19:59 74.5 °F 64.9 °F 30.13 in Calm     72% 0 in meteobridge W/m2
20:04 74.3 °F 64.2 °F 30.13 in Calm     71% 0 in meteobridge W/m2
20:09 74.1 °F 64 °F 30.13 in Calm     71% 0 in meteobridge W/m2
20:14 73.9 °F 63.5 °F 30.13 in Calm     70% 0 in meteobridge W/m2
20:19 73.9 °F 63.5 °F 30.13 in Calm     70% 0 in meteobridge W/m2
20:24 73.8 °F 63.3 °F 30.13 in Calm     70% 0 in meteobridge W/m2
20:29 73.6 °F 63.1 °F 30.13 in Calm     70% 0 in meteobridge W/m2
20:34 73.4 °F 63 °F 30.13 in Calm     70% 0 in meteobridge W/m2
20:39 73.2 °F 62.8 °F 30.13 in Calm     70% 0 in meteobridge W/m2
20:44 73 °F 62.6 °F 30.14 in Calm     70% 0 in meteobridge W/m2
20:49 73 °F 62.2 °F 30.14 in Calm     69% 0 in meteobridge W/m2
20:54 72.9 °F 62.1 °F 30.14 in Calm     69% 0 in meteobridge W/m2
20:59 72.7 °F 61.9 °F 30.14 in Calm     69% 0 in meteobridge W/m2
21:04 72.7 °F 61.9 °F 30.14 in Calm     69% 0 in meteobridge W/m2
21:09 72.5 °F 61.7 °F 30.14 in Calm     69% 0 in meteobridge W/m2
21:14 72.3 °F 61.5 °F 30.14 in Calm     69% 0 in meteobridge W/m2
21:19 72.1 °F 61.3 °F 30.14 in Calm     69% 0 in meteobridge W/m2
21:24 72.1 °F 61.3 °F 30.15 in Calm     69% 0 in meteobridge W/m2
21:29 72 °F 61.2 °F 30.15 in Calm     69% 0 in meteobridge W/m2
21:34 71.8 °F 61 °F 30.15 in Calm     69% 0 in meteobridge W/m2
21:39 71.6 °F 60.8 °F 30.15 in Calm     69% 0 in meteobridge W/m2
21:44 71.4 °F 60.8 °F 30.15 in Calm     69% 0 in meteobridge W/m2
21:49 71.4 °F 60.8 °F 30.15 in Calm     69% 0 in meteobridge W/m2
21:54 71.2 °F 60.6 °F 30.15 in Calm     69% 0 in meteobridge W/m2
21:59 71.2 °F 60.1 °F 30.16 in Calm     68% 0 in meteobridge W/m2
22:04 71.1 °F 59.9 °F 30.16 in Calm     68% 0 in meteobridge W/m2
22:09 70.9 °F 59.7 °F 30.16 in Calm     68% 0 in meteobridge W/m2
22:14 70.9 °F 59.7 °F 30.16 in Calm     68% 0 in meteobridge W/m2
22:19 70.5 °F 59.4 °F 30.16 in Calm     68% 0 in meteobridge W/m2
22:24 70.5 °F 59.4 °F 30.16 in Calm     68% 0 in meteobridge W/m2
22:29 70.3 °F 59.4 °F 30.16 in Calm     68% 0 in meteobridge W/m2
22:34 70.2 °F 59.2 °F 30.16 in Calm     68% 0 in meteobridge W/m2
22:39 70.2 °F 59.2 °F 30.16 in Calm     68% 0 in meteobridge W/m2
22:44 70 °F 59 °F 30.16 in Calm     68% 0 in meteobridge W/m2
22:49 69.8 °F 58.8 °F 30.16 in Calm     68% 0 in meteobridge W/m2
22:54 69.6 °F 58.6 °F 30.16 in Calm     68% 0 in meteobridge W/m2
22:59 69.4 °F 58.5 °F 30.16 in Calm     68% 0 in meteobridge W/m2
23:04 69.4 °F 58.5 °F 30.16 in Calm     68% 0 in meteobridge W/m2
23:09 69.4 °F 57.9 °F 30.16 in Calm     67% 0 in meteobridge W/m2
23:14 69.3 °F 57.9 °F 30.16 in Calm     67% 0 in meteobridge W/m2
23:19 69.3 °F 57.9 °F 30.16 in Calm     67% 0 in meteobridge W/m2
23:24 69.3 °F 57.9 °F 30.16 in Calm     67% 0 in meteobridge W/m2
23:29 69.1 °F 57.7 °F 30.16 in Calm     67% 0 in meteobridge W/m2
23:34 69.1 °F 57.7 °F 30.16 in Calm     67% 0 in meteobridge W/m2
23:39 69.1 °F 57.7 °F 30.16 in Calm     67% 0 in meteobridge W/m2
23:44 68.9 °F 57.6 °F 30.16 in Calm     67% 0 in meteobridge W/m2
23:49 68.7 °F 57.4 °F 30.16 in Calm     67% 0 in meteobridge W/m2
23:54 68.7 °F 57.4 °F 30.16 in Calm     67% 0 in meteobridge W/m2
23:58 68.5 °F 57.2 °F 30.16 in Calm     67% 0 in meteobridge W/m2
EllijayWeather
Compliments of Weather Underground - 2.5 mb